AirNav   Everest Fuels
 
 922 users online  

25FA Jackson Memorial Hospital Heliport
Miami, Florida, USA

GOING TO MIAMI?


FAA INFORMATION EFFECTIVE 05 DECEMBER 2019

Location

FAA Identifier: 25FA
Lat/Long: 25-47-34.3000N 080-12-41.2900W
25-47.571667N 080-12.688167W
25.7928611,-80.2114694
(estimated)
Elevation: 92 ft. / 28 m (estimated)
Variation: 03W (1985)
From city: 2 miles NW of MIAMI, FL
Time zone: UTC -5 (UTC -4 during Daylight Saving Time)
Zip code: 33136

Heliport Operations

Heliport use: Private use, MEDICAL.
Activation date: 05/1964
Control tower: no
ARTCC: MIAMI CENTER
FSS: MIAMI FLIGHT SERVICE STATION
Attendance: CONTINUOUS
FOR ATTENDANCE, CALL 305-585-6913.
Wind indicator: yes
Segmented circle: no
Lights: SS-SR

Heliport Communications

WX ASOS at MIA (4 nm W): PHONE 305-870-0235
WX ASOS at OPF (8 nm NW): 125.9 (305-681-4063)
WX ASOS at HWO (13 nm N): PHONE 954-983-5904
WX ASOS at TMB (15 nm SW): PHONE 305-235-1332
WX ASOS at FLL (17 nm N): PHONE 954-359-7857

Nearby radio navigation aids

VOR radial/distance  VOR name  Freq  Var
VKZr313/3.9VIRGINIA KEY VOR/DME117.1004W
DHPr097/7.4DOLPHIN VORTAC113.9004W
FLLr194/17.0FORT LAUDERDALE VOR/DME114.4006W

Heliport Services

Airframe service: NONE
Powerplant service: NONE

Runway Information

Helipad H1

Dimensions: 50 x 50 ft. / 15 x 15 m
Surface: concrete, in good condition
ROOFTOP.
Runway edge lights: PERI
Latitude: 25-47.571667N
Longitude: 080-12.688167W
Elevation: 92.0 ft.
Traffic pattern: leftleft

Heliport Ownership and Management from official FAA records

Ownership: Publicly-owned
Owner: JACKSON MEMORIAL HOSPITAL
1611 NW 12TH AVENUE
MIAMI, FL 33136
Phone (305) 585-1140
Manager: OLGA D. QUINTANA
1611 NW 12TH AVENUE
MIAMI, FL 33136
Phone 305-585-1140

Heliport Operational Statistics

Aircraft based on the field: 1
Helicopters: 1
    

Additional Remarks

A52-H1 BLDGS & PLINES ALL SIDES.
RED GUIDE LIGHTS AT CORNERS; LETTER 'H' AT CENTER OF HELIPAD.
EXECUTE & MAINTAIN OPERATIONAL LOA WITH FOLLOWING HELIPORTS - MIAMI HERALD; MIAMI POLICE; SOUTHEAST BANK OPERATIONS.
FOR CD CTC MIAMI APCH AT 305-869-5432.

Instrument Procedures

There are no published instrument procedures at 25FA.

Some nearby airports with instrument procedures:

KMIA - Miami International Airport (4 nm W)
KOPF - Miami-Opa Locka Executive Airport (8 nm NW)
KHWO - North Perry Airport (13 nm N)
KTMB - Miami Executive Airport (15 nm SW)
KFLL - Fort Lauderdale/Hollywood International Airport (17 nm N)
 
Loc | Ops | Rwys | IFR | FBO | Links
Com | Nav | Svcs | Stats | Notes

Reliance Aviation
AirBoss

 
Area around 25FA (Jackson Memorial Hospital Heliport)
 
Road maps at: MapQuest Bing Google
 
Aerial photo
WARNING: Photo may not be current or correct
Aerial photo of 25FA (Jackson Memorial Hospital Heliport)
Do you have a better or more recent aerial photo of Jackson Memorial Hospital Heliport that you would like to share? If so, please send us your photo.

 
Sectional chart

 
Airport distance calculator
Flying to Jackson Memorial Hospital Heliport? Find the distance to fly.

From to 25FA

Sunrise and sunset
Times for 12-Dec-2019
 Local
(UTC-5)
 Zulu
(UTC)
Morning civil twilight06:3411:34
Sunrise06:5911:59
Sunset17:3022:30
Evening civil twilight17:5522:55

Current date and time
Zulu (UTC)  13-Dec-2019 01:41:25
Local (UTC-5)  12-Dec-2019 20:41:25
 
METAR
KMIA 
6nm W 
130053Z 11005KT 10SM SCT025 BKN250 24/19 A3011 RMK AO2 SLP197 T02390194 $
KOPF 
8nm NW 
130053Z 05004KT 10SM SCT029 BKN085 24/21 A3012 RMK AO2 SLP201 T02390206
KHWO 
12nm N 
130027Z 07010G16KT 6SM RA BKN025 BKN032 24/20 A3013 RMK AO2 RAB23 P0002 T02390200
KTMB 
15nm SW 
130053Z 09006KT 10SM CLR 22/20 A3011 RMK AO2 SLP195 T02220200
KFLL 
17nm N 
130053Z 00000KT 10SM SCT023 BKN090 22/20 A3011 RMK AO2 RAE18 SLP194 P0015 T02220200 $
TAF
KMIA 
6nm W 
122201Z 1222/1324 10012KT P6SM VCSH FEW030 SCT050 SCT160 BKN250 FM130000 09007KT P6SM SCT030 BKN060 BKN100 PROB30 1309/1315 5SM SHRA BKN025 FM131500 12008KT P6SM SCT025 BKN050 BKN100 PROB30 1315/1318 5SM SHRA BKN025 FM131800 16009KT P6SM SCT025 BKN050 BKN150
KOPF 
8nm NW 
122201Z 1222/1318 12011KT P6SM VCSH SCT027 SCT035 BKN060 FM130000 09007KT P6SM SCT030 BKN060 BKN100 PROB30 1309/1315 5SM SHRA BKN025 FM131500 12008KT P6SM SCT025 BKN050 BKN100 PROB30 1315/1318 5SM SHRA BKN025
KTMB 
15nm SW 
122201Z 1222/1318 09010KT P6SM VCSH SCT025 SCT050 FM130000 09006KT P6SM SCT030 BKN060 BKN100 PROB30 1309/1315 5SM SHRA BKN025 FM131500 12008KT P6SM SCT025 BKN050 BKN100 PROB30 1315/1318 5SM SHRA BKN025
KFLL 
17nm N 
122201Z 1222/1324 11012KT P6SM VCSH SCT025 SCT100 BKN170 FM130000 10008KT P6SM SCT030 BKN060 BKN100 PROB30 1309/1315 5SM SHRA BKN025 FM131500 13009KT P6SM SCT025 BKN050 BKN100 PROB30 1315/1318 5SM SHRA BKN025 FM131800 16009KT P6SM SCT025 BKN050 BKN150
NOTAMs
Click for the latest NOTAMs
NOTAMs are issued by the DoD/FAA and will open in a separate window not controlled by AirNav.

 

 
 

Would you like to see your business listed on this page?

 If your business provides an interesting product or service to pilots, flight crews, aircraft, or users of the Jackson Memorial Hospital Heliport, you should consider listing it here.  To start the listing process, click on the button below
 
Add a business
 

Other Pages about Jackson Memorial Hospital Heliport

Update a link
 
Copyright © AirNav, LLC. All rights reserved. Privacy Policy  Contact